createdAt,value
2018-12-27T15:36:54.342Z,12.00
2018-12-27T15:51:42.790Z,10.00
2018-12-27T18:36:07.423Z,8.70
2018-12-27T18:38:40.008Z,8.80
2018-12-27T18:41:17.991Z,8.70
2018-12-27T18:43:47.751Z,8.70
2018-12-27T18:46:17.198Z,8.60
2018-12-27T18:48:46.163Z,8.60
2018-12-27T18:51:15.054Z,8.50
2018-12-27T18:53:44.632Z,8.60
2018-12-27T18:56:13.558Z,8.60
2018-12-27T18:58:42.427Z,8.60
2018-12-27T19:01:11.273Z,8.60
2018-12-27T19:03:40.428Z,8.70
2018-12-27T19:06:10.292Z,8.80
2018-12-27T19:08:44.457Z,8.70
2018-12-27T19:13:30.031Z,8.70
2018-12-27T19:16:03.185Z,8.70
2018-12-27T19:18:44.316Z,8.60
2018-12-27T19:21:18.656Z,8.60
2018-12-27T19:23:48.586Z,8.50
2018-12-27T19:26:24.297Z,8.50
2018-12-27T19:28:55.141Z,8.50
2018-12-27T19:31:24.986Z,8.50
2018-12-27T19:33:54.888Z,8.50
2018-12-27T19:36:26.094Z,8.50
2018-12-27T19:38:56.484Z,8.50
2018-12-27T19:41:27.868Z,8.40
2018-12-27T19:58:10.696Z,8.70
2018-12-27T20:01:02.899Z,8.50
2018-12-27T20:37:36.105Z,8.50
2018-12-27T20:40:05.681Z,8.40
2018-12-27T20:42:35.361Z,8.40
2018-12-27T20:45:06.179Z,8.40
2018-12-27T20:47:35.623Z,8.40
2018-12-27T20:50:05.260Z,8.40
2018-12-27T20:52:35.756Z,8.40
2018-12-27T20:55:04.903Z,8.50
2018-12-27T20:57:34.955Z,8.40
2018-12-27T21:00:05.383Z,8.40
2018-12-27T21:02:35.960Z,8.30
2018-12-27T21:05:06.957Z,8.20
2018-12-27T21:07:36.500Z,8.30
2018-12-27T21:10:05.835Z,8.40
2018-12-27T21:12:37.015Z,8.40
2018-12-27T21:15:05.399Z,8.40
2018-12-27T21:17:35.072Z,8.40
2018-12-27T21:20:04.577Z,8.50
2018-12-27T21:22:35.342Z,8.40
2018-12-27T21:25:04.793Z,8.40
2018-12-27T21:27:34.873Z,8.40
2018-12-27T21:30:06.201Z,8.50
2018-12-27T21:32:36.391Z,8.40
2018-12-27T21:35:05.945Z,8.30
2018-12-27T21:37:35.775Z,8.30
2018-12-27T21:40:05.318Z,8.30
2018-12-27T21:42:35.148Z,8.20
2018-12-27T21:45:06.975Z,8.20
2018-12-27T21:47:36.445Z,8.20
2018-12-27T21:50:06.345Z,8.20
2018-12-27T21:52:36.759Z,8.20
2018-12-27T21:55:06.452Z,8.30
2018-12-27T21:57:36.047Z,8.30
2018-12-27T22:00:06.300Z,8.20
2018-12-27T22:02:35.661Z,8.30
2018-12-27T22:19:10.289Z,8.20
2018-12-27T22:21:39.738Z,8.20
2018-12-27T22:24:09.931Z,8.20
2018-12-27T22:26:40.379Z,8.20
2018-12-27T22:40:51.414Z,8.00
2018-12-27T22:43:34.563Z,8.00
2018-12-27T22:46:12.601Z,8.00
2018-12-27T22:51:47.236Z,7.90
2018-12-27T23:00:28.300Z,7.90
2018-12-27T23:03:09.985Z,7.90
2018-12-27T23:14:33.441Z,7.80
2018-12-27T23:26:03.825Z,7.80
2018-12-27T23:34:47.209Z,7.70
2018-12-27T23:43:25.648Z,7.90
2018-12-27T23:45:56.407Z,7.80
2018-12-27T23:48:27.699Z,7.70
